KLM109 EHAM-LPMA
Flight info
| Callsign | KLM109 |
|---|---|
| Flight time | 3h 41m |
| Altitude | 32000 |
| Route | IDRID L980 LOGAN DCT SAM/N0446F330 M195 LORKU DCT EBOMO DCT COQUE DCT KORUL DCT DEMOS DCT ASMAR DCT LIDRO |
| Aircraft | A21N/M-SDE3FGHIRWY/LB1 |
Departure
| Time | 2026-05-06 15:14 |
|---|---|
| Airport | Amsterdam Airport Schiphol (EHAM) |
Arrival
| Time | 2026-05-06 18:55 |
|---|---|
| Airport | Cristiano Ronaldo International Airport (LPMA) |
| Time | Latitude | Longitude | Altitude | Speed | Heading |
|---|---|---|---|---|---|
| 2026-05-06 14:33 | 52.30505 | 4.76548 | 0 ft | 0 kts | 58° |
| 2026-05-06 14:57 | 52.30502 | 4.76537 | 0 ft | 2 kts | 58° |
| 2026-05-06 14:58 | 52.30494 | 4.76517 | 0 ft | 2 kts | 58° |
| 2026-05-06 14:58 | 52.30486 | 4.76495 | 0 ft | 2 kts | 69° |
| 2026-05-06 14:58 | 52.30485 | 4.76471 | 0 ft | 2 kts | 107° |
| 2026-05-06 14:58 | 52.30492 | 4.76450 | 0 ft | 1 kts | 140° |
| 2026-05-06 14:59 | 52.30498 | 4.76443 | 0 ft | 1 kts | 152° |
| 2026-05-06 14:59 | 52.30501 | 4.76440 | 0 ft | 0 kts | 148° |
| 2026-05-06 15:03 | 52.30499 | 4.76442 | 0 ft | 1 kts | 148° |
| 2026-05-06 15:04 | 52.30473 | 4.76469 | 0 ft | 8 kts | 147° |
| 2026-05-06 15:04 | 52.30403 | 4.76543 | 0 ft | 14 kts | 148° |
| 2026-05-06 15:04 | 52.30346 | 4.76668 | 0 ft | 14 kts | 102° |
| 2026-05-06 15:04 | 52.30309 | 4.76804 | 0 ft | 13 kts | 76° |
| 2026-05-06 15:05 | 52.30357 | 4.76940 | 0 ft | 13 kts | 57° |
| 2026-05-06 15:05 | 52.30409 | 4.77077 | 0 ft | 14 kts | 58° |
| 2026-05-06 15:05 | 52.30461 | 4.77213 | 0 ft | 14 kts | 58° |
| 2026-05-06 15:05 | 52.30513 | 4.77352 | 0 ft | 14 kts | 58° |
| 2026-05-06 15:06 | 52.30566 | 4.77486 | 0 ft | 13 kts | 55° |
| 2026-05-06 15:06 | 52.30634 | 4.77584 | 0 ft | 13 kts | 11° |
| 2026-05-06 15:06 | 52.30738 | 4.77598 | 0 ft | 16 kts | 4° |
| 2026-05-06 15:06 | 52.30855 | 4.77611 | 0 ft | 16 kts | 4° |
| 2026-05-06 15:07 | 52.30972 | 4.77619 | 0 ft | 17 kts | 3° |
| 2026-05-06 15:07 | 52.31097 | 4.77632 | 0 ft | 18 kts | 5° |
| 2026-05-06 15:07 | 52.31220 | 4.77642 | 0 ft | 18 kts | 3° |
| 2026-05-06 15:07 | 52.31351 | 4.77653 | 0 ft | 19 kts | 3° |
| 2026-05-06 15:08 | 52.31476 | 4.77611 | 0 ft | 18 kts | 325° |
| 2026-05-06 15:08 | 52.31562 | 4.77462 | 0 ft | 18 kts | 296° |
| 2026-05-06 15:08 | 52.31574 | 4.77236 | 0 ft | 21 kts | 266° |
| 2026-05-06 15:08 | 52.31565 | 4.76998 | 0 ft | 20 kts | 267° |
| 2026-05-06 15:09 | 52.31557 | 4.76767 | 0 ft | 20 kts | 267° |
| 2026-05-06 15:09 | 52.31549 | 4.76541 | 0 ft | 20 kts | 266° |
| 2026-05-06 15:09 | 52.31542 | 4.76316 | 0 ft | 19 kts | 268° |
| 2026-05-06 15:09 | 52.31534 | 4.76097 | 0 ft | 19 kts | 267° |
| 2026-05-06 15:10 | 52.31527 | 4.75882 | 0 ft | 18 kts | 267° |
| 2026-05-06 15:10 | 52.31520 | 4.75671 | 0 ft | 18 kts | 266° |
| 2026-05-06 15:10 | 52.31512 | 4.75460 | 0 ft | 18 kts | 267° |
| 2026-05-06 15:10 | 52.31506 | 4.75246 | 0 ft | 19 kts | 268° |
| 2026-05-06 15:11 | 52.31498 | 4.75029 | 0 ft | 19 kts | 267° |
| 2026-05-06 15:11 | 52.31490 | 4.74815 | 0 ft | 18 kts | 267° |
| 2026-05-06 15:11 | 52.31519 | 4.74666 | 0 ft | 12 kts | 346° |
| 2026-05-06 15:11 | 52.31591 | 4.74656 | 0 ft | 9 kts | 0° |
| 2026-05-06 15:12 | 52.31656 | 4.74696 | 0 ft | 10 kts | 44° |
| 2026-05-06 15:12 | 52.31668 | 4.74757 | 0 ft | 0 kts | 88° |
| 2026-05-06 15:13 | 52.31668 | 4.74784 | 0 ft | 17 kts | 88° |
| 2026-05-06 15:13 | 52.31690 | 4.75430 | 0 ft | 93 kts | 87° |
| 2026-05-06 15:14 | 52.31737 | 4.76827 | 0 ft | 151 kts | 86° |
| 2026-05-06 15:14 | 52.31804 | 4.78660 | 375 ft | 163 kts | 84° |
| 2026-05-06 15:14 | 52.31797 | 4.80475 | 1011 ft | 165 kts | 102° |
| 2026-05-06 15:14 | 52.31097 | 4.81969 | 1567 ft | 178 kts | 148° |
| 2026-05-06 15:15 | 52.29862 | 4.82133 | 2079 ft | 191 kts | 194° |
| 2026-05-06 15:15 | 52.28629 | 4.81111 | 2512 ft | 205 kts | 206° |
| 2026-05-06 15:15 | 52.27263 | 4.80337 | 3024 ft | 217 kts | 193° |
| 2026-05-06 15:15 | 52.25788 | 4.79521 | 3446 ft | 232 kts | 205° |
| 2026-05-06 15:16 | 52.24324 | 4.78124 | 3696 ft | 255 kts | 213° |
| 2026-05-06 15:16 | 52.22798 | 4.76450 | 4098 ft | 273 kts | 215° |
| 2026-05-06 15:16 | 52.21237 | 4.74578 | 4647 ft | 284 kts | 223° |
| 2026-05-06 15:16 | 52.19937 | 4.72166 | 5369 ft | 286 kts | 238° |
| 2026-05-06 15:17 | 52.18900 | 4.69413 | 6055 ft | 288 kts | 242° |
| 2026-05-06 15:17 | 52.17902 | 4.66584 | 6738 ft | 290 kts | 242° |
| 2026-05-06 15:17 | 52.16895 | 4.63741 | 7395 ft | 292 kts | 241° |
| 2026-05-06 15:17 | 52.15869 | 4.60897 | 8040 ft | 295 kts | 240° |
| 2026-05-06 15:18 | 52.14827 | 4.58045 | 8755 ft | 295 kts | 240° |
| 2026-05-06 15:18 | 52.13779 | 4.55194 | 9469 ft | 295 kts | 240° |
| 2026-05-06 15:18 | 52.12729 | 4.52346 | 10159 ft | 296 kts | 239° |
| 2026-05-06 15:18 | 52.11665 | 4.49437 | 10634 ft | 305 kts | 242° |
| 2026-05-06 15:19 | 52.10825 | 4.46199 | 10915 ft | 319 kts | 254° |
| 2026-05-06 15:19 | 52.10389 | 4.42577 | 11206 ft | 333 kts | 265° |
| 2026-05-06 15:19 | 52.10167 | 4.38751 | 11512 ft | 347 kts | 267° |
| 2026-05-06 15:19 | 52.09971 | 4.34802 | 12005 ft | 354 kts | 266° |
| 2026-05-06 15:20 | 52.09773 | 4.30817 | 12644 ft | 356 kts | 266° |
| 2026-05-06 15:20 | 52.09565 | 4.26819 | 13316 ft | 357 kts | 266° |
| 2026-05-06 15:20 | 52.09351 | 4.22810 | 14023 ft | 357 kts | 266° |
| 2026-05-06 15:20 | 52.09131 | 4.18801 | 14762 ft | 357 kts | 265° |
| 2026-05-06 15:21 | 52.08909 | 4.14798 | 15355 ft | 358 kts | 265° |
| 2026-05-06 15:21 | 52.08682 | 4.10764 | 15871 ft | 362 kts | 265° |
| 2026-05-06 15:21 | 52.08451 | 4.06691 | 16392 ft | 365 kts | 265° |
| 2026-05-06 15:21 | 52.08216 | 4.02575 | 16904 ft | 368 kts | 265° |
| 2026-05-06 15:22 | 52.07977 | 3.98427 | 17403 ft | 371 kts | 265° |
| 2026-05-06 15:22 | 52.07734 | 3.94252 | 17887 ft | 374 kts | 265° |
| 2026-05-06 15:22 | 52.07488 | 3.90051 | 18392 ft | 376 kts | 265° |
| 2026-05-06 15:22 | 52.07138 | 3.85842 | 18872 ft | 379 kts | 260° |
| 2026-05-06 15:23 | 52.06555 | 3.81673 | 19342 ft | 381 kts | 255° |
| 2026-05-06 15:23 | 52.05748 | 3.77569 | 19799 ft | 384 kts | 251° |
| 2026-05-06 15:23 | 52.04861 | 3.73481 | 20249 ft | 386 kts | 251° |
| 2026-05-06 15:23 | 52.03956 | 3.69370 | 20706 ft | 388 kts | 251° |
| 2026-05-06 15:24 | 52.03051 | 3.65254 | 21145 ft | 390 kts | 251° |
| 2026-05-06 15:24 | 52.02143 | 3.61119 | 21561 ft | 392 kts | 251° |
| 2026-05-06 15:24 | 52.01229 | 3.56953 | 21965 ft | 394 kts | 251° |
| 2026-05-06 15:24 | 52.00246 | 3.52810 | 22368 ft | 396 kts | 247° |
| 2026-05-06 15:25 | 51.99014 | 3.48815 | 22770 ft | 398 kts | 241° |
| 2026-05-06 15:25 | 51.97535 | 3.45022 | 23158 ft | 400 kts | 236° |
| 2026-05-06 15:25 | 51.95910 | 3.41370 | 23537 ft | 402 kts | 234° |
| 2026-05-06 15:25 | 51.94253 | 3.37718 | 23901 ft | 404 kts | 234° |
| 2026-05-06 15:26 | 51.92582 | 3.34047 | 24273 ft | 406 kts | 233° |
| 2026-05-06 15:26 | 51.90907 | 3.30364 | 24636 ft | 408 kts | 233° |
| 2026-05-06 15:26 | 51.89228 | 3.26670 | 24994 ft | 410 kts | 234° |
| 2026-05-06 15:26 | 51.87541 | 3.22960 | 25336 ft | 412 kts | 234° |
| 2026-05-06 15:27 | 51.86032 | 3.19043 | 25634 ft | 414 kts | 243° |
| 2026-05-06 15:27 | 51.84981 | 3.14704 | 25945 ft | 416 kts | 253° |
| 2026-05-06 15:27 | 51.84425 | 3.10127 | 26269 ft | 417 kts | 262° |
| 2026-05-06 15:27 | 51.84106 | 3.05475 | 26582 ft | 419 kts | 264° |
| 2026-05-06 15:28 | 51.83816 | 3.00792 | 26843 ft | 421 kts | 264° |
| 2026-05-06 15:28 | 51.83526 | 2.96092 | 27110 ft | 423 kts | 264° |
| 2026-05-06 15:28 | 51.83225 | 2.91355 | 27372 ft | 424 kts | 264° |
| 2026-05-06 15:28 | 51.82916 | 2.86609 | 27623 ft | 426 kts | 263° |
| 2026-05-06 15:29 | 51.82602 | 2.81856 | 27885 ft | 428 kts | 263° |
| 2026-05-06 15:29 | 51.82282 | 2.77085 | 28141 ft | 429 kts | 263° |
| 2026-05-06 15:29 | 51.81959 | 2.72294 | 28374 ft | 431 kts | 263° |
| 2026-05-06 15:29 | 51.81633 | 2.67492 | 28611 ft | 432 kts | 263° |
| 2026-05-06 15:30 | 51.81303 | 2.62676 | 28846 ft | 434 kts | 263° |
| 2026-05-06 15:30 | 51.80969 | 2.57842 | 29071 ft | 435 kts | 263° |
| 2026-05-06 15:30 | 51.80633 | 2.53010 | 29375 ft | 434 kts | 263° |
| 2026-05-06 15:30 | 51.80296 | 2.48192 | 29716 ft | 432 kts | 263° |
| 2026-05-06 15:31 | 51.79959 | 2.43393 | 30030 ft | 431 kts | 263° |
| 2026-05-06 15:31 | 51.79621 | 2.38598 | 30303 ft | 431 kts | 263° |
| 2026-05-06 15:31 | 51.79281 | 2.33812 | 30532 ft | 431 kts | 263° |
| 2026-05-06 15:32 | 51.78586 | 2.24159 | 30938 ft | 433 kts | 263° |
| 2026-05-06 15:32 | 51.78257 | 2.19323 | 31118 ft | 434 kts | 264° |
| 2026-05-06 15:32 | 51.77973 | 2.14491 | 31284 ft | 435 kts | 264° |
| 2026-05-06 15:32 | 51.77697 | 2.09652 | 31451 ft | 436 kts | 264° |
| 2026-05-06 15:33 | 51.77417 | 2.04785 | 31607 ft | 437 kts | 264° |
| 2026-05-06 15:33 | 51.77129 | 1.99890 | 31755 ft | 438 kts | 264° |
| 2026-05-06 15:33 | 51.76839 | 1.95007 | 31884 ft | 439 kts | 264° |
| 2026-05-06 15:33 | 51.76544 | 1.90113 | 32010 ft | 440 kts | 264° |
| 2026-05-06 15:34 | 51.76245 | 1.85194 | 32171 ft | 440 kts | 264° |
| 2026-05-06 15:34 | 51.75954 | 1.80463 | 32348 ft | 439 kts | 264° |
| 2026-05-06 15:34 | 51.75653 | 1.75582 | 32529 ft | 438 kts | 264° |
| 2026-05-06 15:34 | 51.75307 | 1.70712 | 32695 ft | 438 kts | 262° |
| 2026-05-06 15:35 | 51.74803 | 1.65878 | 32854 ft | 438 kts | 259° |
| 2026-05-06 15:35 | 51.74135 | 1.61096 | 32996 ft | 438 kts | 256° |
| 2026-05-06 15:35 | 51.73301 | 1.56357 | 33146 ft | 438 kts | 253° |
| 2026-05-06 15:35 | 51.72314 | 1.51728 | 33281 ft | 438 kts | 250° |
| 2026-05-06 15:36 | 51.71187 | 1.47170 | 33434 ft | 438 kts | 249° |
| 2026-05-06 15:36 | 51.70042 | 1.42647 | 33568 ft | 438 kts | 249° |
| 2026-05-06 15:36 | 51.68893 | 1.38117 | 33692 ft | 438 kts | 249° |
| 2026-05-06 15:36 | 51.67743 | 1.33588 | 33816 ft | 438 kts | 248° |
| 2026-05-06 15:37 | 51.66590 | 1.29058 | 33942 ft | 438 kts | 248° |
| 2026-05-06 15:37 | 51.65435 | 1.24527 | 33948 ft | 438 kts | 248° |
| 2026-05-06 15:37 | 51.63125 | 1.15483 | 33956 ft | 438 kts | 248° |
| 2026-05-06 15:38 | 51.60802 | 1.06428 | 33956 ft | 439 kts | 248° |
| 2026-05-06 15:38 | 51.58474 | 0.97390 | 33956 ft | 438 kts | 248° |
| 2026-05-06 15:39 | 51.56146 | 0.88385 | 33963 ft | 438 kts | 248° |
| 2026-05-06 15:39 | 51.53809 | 0.79381 | 33964 ft | 438 kts | 248° |
| 2026-05-06 15:40 | 51.51464 | 0.70390 | 33966 ft | 438 kts | 248° |
| 2026-05-06 15:40 | 51.49113 | 0.61403 | 33966 ft | 438 kts | 248° |
| 2026-05-06 15:41 | 51.46758 | 0.52431 | 33966 ft | 438 kts | 248° |
| 2026-05-06 15:41 | 51.44392 | 0.43463 | 33966 ft | 438 kts | 248° |
| 2026-05-06 15:42 | 51.42019 | 0.34504 | 33968 ft | 438 kts | 248° |
| 2026-05-06 15:42 | 51.39630 | 0.25522 | 33973 ft | 438 kts | 248° |
| 2026-05-06 15:43 | 51.37239 | 0.16558 | 33977 ft | 438 kts | 248° |
| 2026-05-06 15:43 | 51.34843 | 0.07616 | 33977 ft | 438 kts | 248° |
| 2026-05-06 15:44 | 51.32447 | -0.01294 | 33978 ft | 438 kts | 248° |
| 2026-05-06 15:44 | 51.30042 | -0.10204 | 33979 ft | 437 kts | 248° |
| 2026-05-06 15:45 | 51.27632 | -0.19093 | 33979 ft | 437 kts | 248° |
| 2026-05-06 15:45 | 51.25212 | -0.27990 | 33978 ft | 438 kts | 248° |
| 2026-05-06 15:46 | 51.22788 | -0.36863 | 33979 ft | 438 kts | 248° |
| 2026-05-06 15:46 | 51.20363 | -0.45710 | 33977 ft | 437 kts | 248° |
| 2026-05-06 15:47 | 51.17928 | -0.54560 | 33979 ft | 437 kts | 248° |
| 2026-05-06 15:47 | 51.15493 | -0.63379 | 33979 ft | 437 kts | 248° |
| 2026-05-06 15:48 | 51.13041 | -0.72219 | 33979 ft | 437 kts | 247° |
| 2026-05-06 15:48 | 51.10586 | -0.81039 | 33977 ft | 437 kts | 247° |
| 2026-05-06 15:49 | 51.08124 | -0.89858 | 33972 ft | 437 kts | 247° |
| 2026-05-06 15:49 | 51.05659 | -0.98655 | 33967 ft | 437 kts | 247° |
| 2026-05-06 15:50 | 51.03183 | -1.07461 | 33969 ft | 437 kts | 247° |
| 2026-05-06 15:50 | 51.00704 | -1.16233 | 33974 ft | 437 kts | 247° |
| 2026-05-06 15:51 | 50.98072 | -1.24875 | 33974 ft | 437 kts | 241° |
| 2026-05-06 15:51 | 50.94589 | -1.32736 | 33979 ft | 438 kts | 231° |
| 2026-05-06 15:52 | 50.90274 | -1.39505 | 33979 ft | 440 kts | 221° |
| 2026-05-06 15:52 | 50.85290 | -1.45101 | 33977 ft | 441 kts | 215° |
| 2026-05-06 15:53 | 50.80184 | -1.50393 | 33977 ft | 441 kts | 215° |
| 2026-05-06 15:53 | 50.75043 | -1.55715 | 34062 ft | 444 kts | 215° |
| 2026-05-06 15:54 | 50.72466 | -1.58379 | 34191 ft | 444 kts | 215° |
| 2026-05-06 15:54 | 50.69889 | -1.61043 | 34326 ft | 444 kts | 215° |
| 2026-05-06 15:54 | 50.67310 | -1.63705 | 34455 ft | 444 kts | 215° |
| 2026-05-06 15:54 | 50.64720 | -1.66377 | 34578 ft | 444 kts | 214° |
| 2026-05-06 15:55 | 50.62143 | -1.69031 | 34699 ft | 443 kts | 214° |
| 2026-05-06 15:55 | 50.59567 | -1.71682 | 34823 ft | 443 kts | 214° |
| 2026-05-06 15:55 | 50.56996 | -1.74323 | 34933 ft | 443 kts | 214° |
| 2026-05-06 15:55 | 50.54424 | -1.76961 | 34963 ft | 443 kts | 214° |
| 2026-05-06 15:56 | 50.49269 | -1.82229 | 34969 ft | 443 kts | 214° |
| 2026-05-06 15:56 | 50.44112 | -1.87476 | 34973 ft | 443 kts | 214° |
| 2026-05-06 15:57 | 50.38946 | -1.92726 | 34967 ft | 444 kts | 214° |
| 2026-05-06 15:57 | 50.33757 | -1.97985 | 34971 ft | 446 kts | 214° |
| 2026-05-06 15:58 | 50.28568 | -2.03232 | 34974 ft | 445 kts | 214° |
| 2026-05-06 15:58 | 50.23370 | -2.08455 | 34985 ft | 446 kts | 214° |
| 2026-05-06 15:59 | 50.18128 | -2.13562 | 34987 ft | 445 kts | 213° |
| 2026-05-06 15:59 | 50.12887 | -2.18644 | 34991 ft | 445 kts | 214° |
| 2026-05-06 16:00 | 50.07654 | -2.23719 | 34995 ft | 445 kts | 214° |
| 2026-05-06 16:00 | 50.02410 | -2.28800 | 34991 ft | 446 kts | 214° |
| 2026-05-06 16:01 | 49.97149 | -2.33884 | 34990 ft | 447 kts | 214° |
| 2026-05-06 16:01 | 49.91880 | -2.38957 | 34996 ft | 447 kts | 213° |
| 2026-05-06 16:02 | 49.86599 | -2.44026 | 34990 ft | 447 kts | 214° |
| 2026-05-06 16:02 | 49.81321 | -2.49085 | 34988 ft | 447 kts | 214° |
| 2026-05-06 16:03 | 49.76052 | -2.54129 | 34992 ft | 447 kts | 214° |
| 2026-05-06 16:03 | 49.70787 | -2.59155 | 34989 ft | 446 kts | 214° |
| 2026-05-06 16:04 | 49.65522 | -2.64169 | 34990 ft | 446 kts | 214° |
| 2026-05-06 16:04 | 49.60236 | -2.69189 | 34987 ft | 447 kts | 213° |
| 2026-05-06 16:05 | 49.54951 | -2.74194 | 34989 ft | 447 kts | 213° |
| 2026-05-06 16:05 | 49.49663 | -2.79189 | 34988 ft | 448 kts | 213° |
| 2026-05-06 16:06 | 49.44374 | -2.84173 | 34985 ft | 447 kts | 213° |
| 2026-05-06 16:06 | 49.39083 | -2.89148 | 34984 ft | 447 kts | 213° |
| 2026-05-06 16:07 | 49.33788 | -2.94112 | 34984 ft | 447 kts | 213° |
| 2026-05-06 16:07 | 49.28496 | -2.99061 | 34981 ft | 447 kts | 213° |
| 2026-05-06 16:08 | 49.23202 | -3.04002 | 34977 ft | 447 kts | 213° |
| 2026-05-06 16:08 | 49.17899 | -3.08937 | 34976 ft | 448 kts | 213° |
| 2026-05-06 16:09 | 49.12592 | -3.13863 | 34971 ft | 448 kts | 213° |
| 2026-05-06 16:09 | 49.07280 | -3.18782 | 34976 ft | 448 kts | 213° |
| 2026-05-06 16:10 | 49.01957 | -3.23698 | 34977 ft | 449 kts | 213° |
| 2026-05-06 16:10 | 48.96625 | -3.28610 | 34968 ft | 449 kts | 212° |
| 2026-05-06 16:11 | 48.91292 | -3.33510 | 34970 ft | 449 kts | 213° |
| 2026-05-06 16:11 | 48.85951 | -3.38404 | 34972 ft | 449 kts | 213° |
| 2026-05-06 16:12 | 48.80623 | -3.43275 | 34982 ft | 448 kts | 213° |
| 2026-05-06 16:12 | 48.75285 | -3.48143 | 34975 ft | 448 kts | 213° |
| 2026-05-06 16:13 | 48.69950 | -3.52999 | 34975 ft | 448 kts | 213° |
| 2026-05-06 16:13 | 48.64612 | -3.57842 | 34972 ft | 449 kts | 213° |
| 2026-05-06 16:14 | 48.59268 | -3.62677 | 34969 ft | 449 kts | 213° |
| 2026-05-06 16:14 | 48.53894 | -3.67529 | 34962 ft | 449 kts | 212° |
| 2026-05-06 16:15 | 48.48484 | -3.72402 | 34957 ft | 449 kts | 212° |
| 2026-05-06 16:15 | 48.43129 | -3.77212 | 34962 ft | 449 kts | 212° |
| 2026-05-06 16:16 | 48.37778 | -3.82007 | 34951 ft | 449 kts | 212° |
| 2026-05-06 16:16 | 48.32428 | -3.86789 | 34945 ft | 448 kts | 212° |
| 2026-05-06 16:17 | 48.27082 | -3.91560 | 34936 ft | 448 kts | 212° |
| 2026-05-06 16:17 | 48.21739 | -3.96316 | 34947 ft | 448 kts | 212° |
| 2026-05-06 16:18 | 48.16388 | -4.01065 | 34938 ft | 448 kts | 212° |
| 2026-05-06 16:18 | 48.11027 | -4.05812 | 34940 ft | 449 kts | 212° |
| 2026-05-06 16:19 | 48.05661 | -4.10552 | 34951 ft | 449 kts | 212° |
| 2026-05-06 16:19 | 48.00300 | -4.15276 | 34957 ft | 449 kts | 212° |
| 2026-05-06 16:20 | 47.94933 | -4.19994 | 34963 ft | 448 kts | 212° |
| 2026-05-06 16:20 | 47.89569 | -4.24701 | 34965 ft | 448 kts | 212° |
| 2026-05-06 16:21 | 47.84208 | -4.29394 | 34971 ft | 448 kts | 212° |
| 2026-05-06 16:21 | 47.78880 | -4.34155 | 34982 ft | 448 kts | 213° |
| 2026-05-06 16:22 | 47.73605 | -4.39063 | 34989 ft | 448 kts | 214° |
| 2026-05-06 16:22 | 47.68337 | -4.43955 | 34978 ft | 448 kts | 214° |
| 2026-05-06 16:23 | 47.63061 | -4.48831 | 34978 ft | 448 kts | 214° |
| 2026-05-06 16:23 | 47.57778 | -4.53695 | 34978 ft | 448 kts | 214° |
| 2026-05-06 16:24 | 47.52492 | -4.58549 | 34985 ft | 448 kts | 214° |
| 2026-05-06 16:24 | 47.47215 | -4.63382 | 34989 ft | 447 kts | 214° |
| 2026-05-06 16:25 | 47.41932 | -4.68209 | 34990 ft | 448 kts | 213° |
| 2026-05-06 16:25 | 47.36649 | -4.73022 | 34997 ft | 447 kts | 213° |
| 2026-05-06 16:26 | 47.31368 | -4.77822 | 34999 ft | 447 kts | 213° |
| 2026-05-06 16:26 | 47.26083 | -4.82618 | 34997 ft | 447 kts | 213° |
| 2026-05-06 16:27 | 47.20794 | -4.87406 | 35003 ft | 448 kts | 213° |
| 2026-05-06 16:27 | 47.15499 | -4.92192 | 35006 ft | 448 kts | 213° |
| 2026-05-06 16:28 | 47.10197 | -4.96971 | 35009 ft | 448 kts | 213° |
| 2026-05-06 16:28 | 47.04904 | -5.01728 | 35014 ft | 447 kts | 213° |
| 2026-05-06 16:29 | 46.99623 | -5.06470 | 35016 ft | 446 kts | 213° |
| 2026-05-06 16:29 | 46.94346 | -5.11203 | 35019 ft | 446 kts | 213° |
| 2026-05-06 16:30 | 46.89959 | -5.15134 | 35015 ft | 446 kts | 213° |
| 2026-05-06 16:30 | 46.83766 | -5.20670 | 35018 ft | 447 kts | 213° |
| 2026-05-06 16:31 | 46.78475 | -5.25386 | 35015 ft | 446 kts | 213° |
| 2026-05-06 16:31 | 46.73196 | -5.30081 | 35018 ft | 445 kts | 213° |
| 2026-05-06 16:32 | 46.67915 | -5.34767 | 35016 ft | 445 kts | 213° |
| 2026-05-06 16:32 | 46.62631 | -5.39443 | 35018 ft | 445 kts | 213° |
| 2026-05-06 16:33 | 46.57350 | -5.44104 | 35015 ft | 445 kts | 213° |
| 2026-05-06 16:34 | 46.49430 | -5.51079 | 35015 ft | 444 kts | 213° |
| 2026-05-06 16:34 | 46.44160 | -5.55708 | 35016 ft | 444 kts | 213° |
| 2026-05-06 16:35 | 46.38890 | -5.60327 | 35013 ft | 444 kts | 213° |
| 2026-05-06 16:35 | 46.33620 | -5.64932 | 35010 ft | 444 kts | 213° |
| 2026-05-06 16:36 | 46.28337 | -5.69542 | 35012 ft | 444 kts | 212° |
| 2026-05-06 16:36 | 46.23061 | -5.74133 | 35009 ft | 444 kts | 212° |
| 2026-05-06 16:37 | 46.17785 | -5.78713 | 35010 ft | 444 kts | 212° |
| 2026-05-06 16:37 | 46.12507 | -5.83282 | 35010 ft | 443 kts | 212° |
| 2026-05-06 16:38 | 46.07237 | -5.87837 | 35014 ft | 443 kts | 212° |
| 2026-05-06 16:38 | 46.01967 | -5.92383 | 35008 ft | 443 kts | 212° |
| 2026-05-06 16:39 | 45.96694 | -5.96920 | 35015 ft | 442 kts | 212° |
| 2026-05-06 16:39 | 45.91432 | -6.01439 | 35018 ft | 442 kts | 212° |
| 2026-05-06 16:40 | 45.86159 | -6.05957 | 35022 ft | 442 kts | 212° |
| 2026-05-06 16:40 | 45.80891 | -6.10458 | 35023 ft | 443 kts | 212° |
| 2026-05-06 16:41 | 45.75607 | -6.14964 | 35024 ft | 443 kts | 212° |
| 2026-05-06 16:41 | 45.70325 | -6.19455 | 35022 ft | 443 kts | 212° |
| 2026-05-06 16:42 | 45.65047 | -6.23935 | 35022 ft | 442 kts | 212° |
| 2026-05-06 16:42 | 45.59765 | -6.28410 | 35017 ft | 442 kts | 212° |
| 2026-05-06 16:43 | 45.54484 | -6.32873 | 35019 ft | 442 kts | 212° |
| 2026-05-06 16:43 | 45.49211 | -6.37320 | 35014 ft | 441 kts | 212° |
| 2026-05-06 16:44 | 45.43935 | -6.41760 | 35013 ft | 441 kts | 212° |
| 2026-05-06 16:44 | 45.38659 | -6.46191 | 35004 ft | 442 kts | 212° |
| 2026-05-06 16:45 | 45.33375 | -6.50620 | 35008 ft | 442 kts | 212° |
| 2026-05-06 16:45 | 45.28090 | -6.55037 | 35009 ft | 442 kts | 212° |
| 2026-05-06 16:46 | 45.22801 | -6.59451 | 35013 ft | 442 kts | 212° |
| 2026-05-06 16:46 | 45.17524 | -6.63845 | 35012 ft | 441 kts | 212° |
| 2026-05-06 16:47 | 45.12252 | -6.68227 | 35012 ft | 441 kts | 211° |
| 2026-05-06 16:47 | 45.06972 | -6.72604 | 35010 ft | 441 kts | 211° |
| 2026-05-06 16:48 | 45.01688 | -6.76977 | 35020 ft | 441 kts | 211° |
| 2026-05-06 16:48 | 44.96403 | -6.81341 | 35013 ft | 441 kts | 211° |
| 2026-05-06 16:49 | 44.91121 | -6.85698 | 35013 ft | 441 kts | 211° |
| 2026-05-06 16:49 | 44.85822 | -6.90056 | 35013 ft | 440 kts | 211° |
| 2026-05-06 16:50 | 44.80613 | -6.94526 | 35014 ft | 439 kts | 213° |
| 2026-05-06 16:50 | 44.75453 | -6.99089 | 35013 ft | 439 kts | 213° |
| 2026-05-06 16:51 | 44.70294 | -7.03650 | 35010 ft | 439 kts | 213° |
| 2026-05-06 16:51 | 44.65131 | -7.08209 | 35009 ft | 439 kts | 213° |
| 2026-05-06 16:52 | 44.59966 | -7.12759 | 35009 ft | 439 kts | 213° |
| 2026-05-06 16:52 | 44.54810 | -7.17295 | 35008 ft | 438 kts | 213° |
| 2026-05-06 16:53 | 44.49666 | -7.21812 | 35006 ft | 438 kts | 213° |
| 2026-05-06 16:53 | 44.44518 | -7.26321 | 35003 ft | 437 kts | 213° |
| 2026-05-06 16:54 | 44.39373 | -7.30818 | 35002 ft | 437 kts | 213° |
| 2026-05-06 16:54 | 44.34228 | -7.35306 | 35002 ft | 437 kts | 213° |
| 2026-05-06 16:55 | 44.29079 | -7.39788 | 34998 ft | 437 kts | 213° |
| 2026-05-06 16:55 | 44.23929 | -7.44261 | 34999 ft | 437 kts | 213° |
| 2026-05-06 16:56 | 44.18779 | -7.48724 | 35000 ft | 436 kts | 213° |
| 2026-05-06 16:56 | 44.13635 | -7.53172 | 35001 ft | 436 kts | 213° |
| 2026-05-06 16:57 | 44.08494 | -7.57609 | 34998 ft | 436 kts | 213° |
| 2026-05-06 16:57 | 44.03358 | -7.62033 | 34997 ft | 436 kts | 213° |
| 2026-05-06 16:58 | 43.98213 | -7.66459 | 35003 ft | 436 kts | 212° |
| 2026-05-06 16:58 | 43.93071 | -7.70871 | 34997 ft | 435 kts | 212° |
| 2026-05-06 16:59 | 43.87923 | -7.75277 | 34996 ft | 435 kts | 212° |
| 2026-05-06 16:59 | 43.82784 | -7.79667 | 34995 ft | 435 kts | 212° |
| 2026-05-06 17:00 | 43.77652 | -7.84042 | 35000 ft | 434 kts | 212° |
| 2026-05-06 17:00 | 43.72528 | -7.88401 | 35002 ft | 433 kts | 212° |
| 2026-05-06 17:01 | 43.67413 | -7.92744 | 34998 ft | 433 kts | 212° |
| 2026-05-06 17:01 | 43.62294 | -7.97081 | 34991 ft | 432 kts | 212° |
| 2026-05-06 17:02 | 43.57177 | -8.01410 | 34987 ft | 432 kts | 212° |
| 2026-05-06 17:02 | 43.52060 | -8.05729 | 34988 ft | 432 kts | 212° |
| 2026-05-06 17:03 | 43.46942 | -8.10039 | 34989 ft | 432 kts | 212° |
| 2026-05-06 17:03 | 43.41830 | -8.14335 | 34994 ft | 431 kts | 212° |
| 2026-05-06 17:04 | 43.36722 | -8.18620 | 34992 ft | 431 kts | 212° |
| 2026-05-06 17:04 | 43.31615 | -8.22894 | 34998 ft | 430 kts | 212° |
| 2026-05-06 17:05 | 43.26508 | -8.27162 | 34994 ft | 430 kts | 212° |
| 2026-05-06 17:05 | 43.21404 | -8.31419 | 34992 ft | 430 kts | 212° |
| 2026-05-06 17:06 | 43.16296 | -8.35670 | 34994 ft | 430 kts | 212° |
| 2026-05-06 17:06 | 43.11195 | -8.39908 | 34995 ft | 430 kts | 212° |
| 2026-05-06 17:07 | 43.06092 | -8.44137 | 34991 ft | 429 kts | 212° |
| 2026-05-06 17:07 | 43.00992 | -8.48356 | 34989 ft | 429 kts | 212° |
| 2026-05-06 17:08 | 42.95890 | -8.52567 | 34977 ft | 429 kts | 212° |
| 2026-05-06 17:08 | 42.90786 | -8.56774 | 34985 ft | 430 kts | 212° |
| 2026-05-06 17:09 | 42.85658 | -8.60991 | 34975 ft | 430 kts | 212° |
| 2026-05-06 17:09 | 42.80543 | -8.65191 | 34976 ft | 429 kts | 211° |
| 2026-05-06 17:10 | 42.75438 | -8.69373 | 34982 ft | 429 kts | 211° |
| 2026-05-06 17:10 | 42.70329 | -8.73550 | 34968 ft | 429 kts | 211° |
| 2026-05-06 17:11 | 42.65204 | -8.77734 | 34965 ft | 429 kts | 211° |
| 2026-05-06 17:11 | 42.60083 | -8.81906 | 34965 ft | 430 kts | 211° |
| 2026-05-06 17:12 | 42.54954 | -8.86077 | 34969 ft | 431 kts | 211° |
| 2026-05-06 17:12 | 42.49820 | -8.90243 | 34968 ft | 431 kts | 211° |
| 2026-05-06 17:13 | 42.44680 | -8.94404 | 34968 ft | 431 kts | 211° |
| 2026-05-06 17:13 | 42.39543 | -8.98555 | 34965 ft | 431 kts | 211° |
| 2026-05-06 17:14 | 42.34405 | -9.02701 | 34959 ft | 430 kts | 211° |
| 2026-05-06 17:14 | 42.29267 | -9.06837 | 34969 ft | 431 kts | 211° |
| 2026-05-06 17:15 | 42.24125 | -9.10969 | 34970 ft | 431 kts | 211° |
| 2026-05-06 17:15 | 42.18980 | -9.15096 | 34949 ft | 432 kts | 212° |
| 2026-05-06 17:16 | 42.13826 | -9.19223 | 34976 ft | 432 kts | 211° |
| 2026-05-06 17:16 | 42.08661 | -9.23353 | 34967 ft | 433 kts | 211° |
| 2026-05-06 17:17 | 42.03492 | -9.27478 | 34971 ft | 433 kts | 211° |
| 2026-05-06 17:17 | 41.98317 | -9.31601 | 34969 ft | 433 kts | 211° |
| 2026-05-06 17:18 | 41.93142 | -9.35732 | 34968 ft | 433 kts | 213° |
| 2026-05-06 17:18 | 41.88141 | -9.40217 | 34965 ft | 432 kts | 215° |
| 2026-05-06 17:19 | 41.83189 | -9.44735 | 34961 ft | 431 kts | 215° |
| 2026-05-06 17:19 | 41.78233 | -9.49253 | 34971 ft | 432 kts | 215° |
| 2026-05-06 17:20 | 41.73272 | -9.53772 | 34969 ft | 432 kts | 215° |
| 2026-05-06 17:20 | 41.68303 | -9.58290 | 34948 ft | 432 kts | 216° |
| 2026-05-06 17:21 | 41.63337 | -9.62799 | 34965 ft | 433 kts | 215° |
| 2026-05-06 17:21 | 41.58362 | -9.67307 | 34955 ft | 432 kts | 214° |
| 2026-05-06 17:22 | 41.53368 | -9.71821 | 34962 ft | 432 kts | 215° |
| 2026-05-06 17:22 | 41.48385 | -9.76320 | 34963 ft | 432 kts | 215° |
| 2026-05-06 17:23 | 41.43408 | -9.80801 | 34971 ft | 432 kts | 215° |
| 2026-05-06 17:23 | 41.38428 | -9.85276 | 34944 ft | 432 kts | 215° |
| 2026-05-06 17:24 | 41.33450 | -9.89743 | 34970 ft | 433 kts | 215° |
| 2026-05-06 17:24 | 41.28466 | -9.94207 | 34976 ft | 433 kts | 215° |
| 2026-05-06 17:25 | 41.23474 | -9.98670 | 34964 ft | 433 kts | 215° |
| 2026-05-06 17:25 | 41.18482 | -10.03125 | 34977 ft | 433 kts | 215° |
| 2026-05-06 17:26 | 41.13488 | -10.07574 | 34965 ft | 433 kts | 215° |
| 2026-05-06 17:26 | 41.08504 | -10.12003 | 34943 ft | 432 kts | 215° |
| 2026-05-06 17:27 | 41.03507 | -10.16437 | 34954 ft | 433 kts | 215° |
| 2026-05-06 17:27 | 40.98513 | -10.20861 | 34972 ft | 433 kts | 215° |
| 2026-05-06 17:28 | 40.93510 | -10.25284 | 34976 ft | 434 kts | 216° |
| 2026-05-06 17:28 | 40.88478 | -10.29726 | 34970 ft | 434 kts | 216° |
| 2026-05-06 17:29 | 40.83453 | -10.34151 | 34969 ft | 434 kts | 216° |
| 2026-05-06 17:29 | 40.78433 | -10.38567 | 34977 ft | 434 kts | 216° |
| 2026-05-06 17:30 | 40.73426 | -10.42962 | 34972 ft | 433 kts | 216° |
| 2026-05-06 17:30 | 40.68413 | -10.47353 | 34982 ft | 434 kts | 216° |
| 2026-05-06 17:31 | 40.63388 | -10.51747 | 34971 ft | 434 kts | 216° |
| 2026-05-06 17:31 | 40.58371 | -10.56125 | 34989 ft | 433 kts | 216° |
| 2026-05-06 17:32 | 40.53350 | -10.60501 | 34986 ft | 434 kts | 216° |
| 2026-05-06 17:32 | 40.48323 | -10.64871 | 34990 ft | 434 kts | 216° |
| 2026-05-06 17:33 | 40.43268 | -10.69260 | 34991 ft | 435 kts | 216° |
| 2026-05-06 17:33 | 40.38230 | -10.73626 | 34992 ft | 435 kts | 216° |
| 2026-05-06 17:34 | 40.33189 | -10.77986 | 34993 ft | 434 kts | 216° |
| 2026-05-06 17:34 | 40.28149 | -10.82338 | 34992 ft | 435 kts | 216° |
| 2026-05-06 17:35 | 40.23098 | -10.86691 | 35009 ft | 435 kts | 216° |
| 2026-05-06 17:35 | 40.18048 | -10.91035 | 35002 ft | 435 kts | 216° |
| 2026-05-06 17:36 | 40.10457 | -10.97549 | 34980 ft | 437 kts | 216° |
| 2026-05-06 17:36 | 40.05384 | -11.01895 | 34988 ft | 437 kts | 216° |
| 2026-05-06 17:37 | 40.00306 | -11.06239 | 35004 ft | 437 kts | 216° |
| 2026-05-06 17:37 | 39.95227 | -11.10574 | 35017 ft | 437 kts | 216° |
| 2026-05-06 17:38 | 39.90144 | -11.14902 | 35026 ft | 437 kts | 216° |
| 2026-05-06 17:38 | 39.85034 | -11.19243 | 35173 ft | 437 kts | 216° |
| 2026-05-06 17:39 | 39.82490 | -11.21404 | 35002 ft | 437 kts | 217° |
| 2026-05-06 17:39 | 39.79943 | -11.23564 | 35009 ft | 438 kts | 217° |
| 2026-05-06 17:39 | 39.74852 | -11.27880 | 35009 ft | 438 kts | 217° |
| 2026-05-06 17:40 | 39.69751 | -11.32195 | 35028 ft | 438 kts | 217° |
| 2026-05-06 17:40 | 39.64655 | -11.36498 | 35027 ft | 438 kts | 217° |
| 2026-05-06 17:41 | 39.59550 | -11.40799 | 35021 ft | 438 kts | 217° |
| 2026-05-06 17:41 | 39.54443 | -11.45097 | 35017 ft | 439 kts | 217° |
| 2026-05-06 17:42 | 39.49331 | -11.49393 | 35037 ft | 439 kts | 217° |
| 2026-05-06 17:42 | 39.44222 | -11.53680 | 35032 ft | 438 kts | 217° |
| 2026-05-06 17:43 | 39.39111 | -11.57959 | 35016 ft | 439 kts | 217° |
| 2026-05-06 17:43 | 39.33980 | -11.62237 | 35041 ft | 440 kts | 217° |
| 2026-05-06 17:44 | 39.28839 | -11.66508 | 35027 ft | 439 kts | 217° |
| 2026-05-06 17:44 | 39.23713 | -11.70766 | 35016 ft | 439 kts | 217° |
| 2026-05-06 17:45 | 39.18590 | -11.75021 | 35015 ft | 439 kts | 217° |
| 2026-05-06 17:45 | 39.13465 | -11.79269 | 35015 ft | 439 kts | 217° |
| 2026-05-06 17:46 | 39.08330 | -11.83517 | 35015 ft | 440 kts | 217° |
| 2026-05-06 17:46 | 39.03182 | -11.87771 | 35004 ft | 441 kts | 217° |
| 2026-05-06 17:47 | 38.98026 | -11.92022 | 35008 ft | 441 kts | 217° |
| 2026-05-06 17:47 | 38.92872 | -11.96265 | 35039 ft | 441 kts | 217° |
| 2026-05-06 17:48 | 38.87713 | -12.00504 | 35029 ft | 440 kts | 217° |
| 2026-05-06 17:48 | 38.82563 | -12.04727 | 35019 ft | 440 kts | 217° |
| 2026-05-06 17:49 | 38.77410 | -12.08946 | 35045 ft | 440 kts | 218° |
| 2026-05-06 17:49 | 38.72268 | -12.13149 | 35029 ft | 439 kts | 218° |
| 2026-05-06 17:50 | 38.67119 | -12.17352 | 35042 ft | 440 kts | 218° |
| 2026-05-06 17:50 | 38.61971 | -12.21547 | 35028 ft | 439 kts | 218° |
| 2026-05-06 17:51 | 38.56826 | -12.25731 | 35030 ft | 439 kts | 218° |
| 2026-05-06 17:51 | 38.51675 | -12.29911 | 35036 ft | 439 kts | 218° |
| 2026-05-06 17:52 | 38.46528 | -12.34084 | 35045 ft | 439 kts | 218° |
| 2026-05-06 17:52 | 38.41378 | -12.38253 | 35032 ft | 439 kts | 218° |
| 2026-05-06 17:53 | 38.36232 | -12.42408 | 35024 ft | 439 kts | 218° |
| 2026-05-06 17:53 | 38.31081 | -12.46563 | 35043 ft | 439 kts | 218° |
| 2026-05-06 17:54 | 38.25927 | -12.50711 | 35028 ft | 438 kts | 218° |
| 2026-05-06 17:54 | 38.20777 | -12.54848 | 35034 ft | 439 kts | 218° |
| 2026-05-06 17:55 | 38.15625 | -12.58984 | 35031 ft | 438 kts | 218° |
| 2026-05-06 17:55 | 38.10472 | -12.63111 | 35030 ft | 439 kts | 218° |
| 2026-05-06 17:56 | 38.05313 | -12.67237 | 35044 ft | 438 kts | 217° |
| 2026-05-06 17:56 | 38.00156 | -12.71353 | 35039 ft | 439 kts | 218° |
| 2026-05-06 17:57 | 37.94991 | -12.75470 | 35039 ft | 439 kts | 217° |
| 2026-05-06 17:57 | 37.89818 | -12.79584 | 35039 ft | 440 kts | 218° |
| 2026-05-06 17:58 | 37.84645 | -12.83694 | 35034 ft | 440 kts | 218° |
| 2026-05-06 17:58 | 37.79466 | -12.87804 | 35040 ft | 440 kts | 217° |
| 2026-05-06 17:59 | 37.74281 | -12.91909 | 35044 ft | 441 kts | 217° |
| 2026-05-06 17:59 | 37.69089 | -12.96009 | 35043 ft | 440 kts | 217° |
| 2026-05-06 18:00 | 37.63898 | -13.00104 | 35046 ft | 441 kts | 218° |
| 2026-05-06 18:00 | 37.58697 | -13.04197 | 35045 ft | 441 kts | 218° |
| 2026-05-06 18:01 | 37.53504 | -13.08281 | 35039 ft | 440 kts | 217° |
| 2026-05-06 18:01 | 37.48319 | -13.12347 | 35039 ft | 440 kts | 217° |
| 2026-05-06 18:02 | 37.43129 | -13.16412 | 35038 ft | 440 kts | 218° |
| 2026-05-06 18:02 | 37.37930 | -13.20482 | 35044 ft | 441 kts | 218° |
| 2026-05-06 18:03 | 37.32729 | -13.24543 | 35050 ft | 440 kts | 218° |
| 2026-05-06 18:03 | 37.27534 | -13.28591 | 35046 ft | 440 kts | 218° |
| 2026-05-06 18:04 | 37.22340 | -13.32637 | 35051 ft | 440 kts | 218° |
| 2026-05-06 18:04 | 37.17135 | -13.36681 | 35045 ft | 440 kts | 218° |
| 2026-05-06 18:05 | 37.11942 | -13.40709 | 35050 ft | 439 kts | 218° |
| 2026-05-06 18:05 | 37.06744 | -13.44736 | 35052 ft | 440 kts | 218° |
| 2026-05-06 18:06 | 37.01537 | -13.48762 | 35038 ft | 440 kts | 218° |
| 2026-05-06 18:06 | 36.96328 | -13.52783 | 35044 ft | 441 kts | 218° |
| 2026-05-06 18:07 | 36.91107 | -13.56810 | 35045 ft | 441 kts | 218° |
| 2026-05-06 18:07 | 36.85875 | -13.60834 | 35039 ft | 444 kts | 218° |
| 2026-05-06 18:08 | 36.80620 | -13.64873 | 35036 ft | 444 kts | 218° |
| 2026-05-06 18:08 | 36.75352 | -13.68913 | 35041 ft | 446 kts | 218° |
| 2026-05-06 18:09 | 36.70054 | -13.72975 | 35046 ft | 448 kts | 218° |
| 2026-05-06 18:09 | 36.64745 | -13.77035 | 35044 ft | 448 kts | 218° |
| 2026-05-06 18:10 | 36.59424 | -13.81095 | 35043 ft | 450 kts | 218° |
| 2026-05-06 18:10 | 36.54079 | -13.85170 | 35047 ft | 452 kts | 218° |
| 2026-05-06 18:11 | 36.48726 | -13.89238 | 35046 ft | 452 kts | 218° |
| 2026-05-06 18:11 | 36.43354 | -13.93322 | 35056 ft | 454 kts | 218° |
| 2026-05-06 18:12 | 36.37962 | -13.97411 | 35052 ft | 456 kts | 218° |
| 2026-05-06 18:12 | 36.32540 | -14.01511 | 35051 ft | 456 kts | 219° |
| 2026-05-06 18:13 | 36.27123 | -14.05606 | 35058 ft | 457 kts | 219° |
| 2026-05-06 18:13 | 36.21690 | -14.09707 | 35060 ft | 459 kts | 218° |
| 2026-05-06 18:14 | 36.16242 | -14.13808 | 35059 ft | 459 kts | 219° |
| 2026-05-06 18:14 | 36.10786 | -14.17913 | 35062 ft | 460 kts | 219° |
| 2026-05-06 18:15 | 36.05315 | -14.22020 | 35062 ft | 462 kts | 219° |
| 2026-05-06 18:15 | 35.99830 | -14.26132 | 35063 ft | 461 kts | 219° |
| 2026-05-06 18:16 | 35.94338 | -14.30240 | 35067 ft | 462 kts | 218° |
| 2026-05-06 18:16 | 35.88824 | -14.34364 | 35058 ft | 464 kts | 219° |
| 2026-05-06 18:17 | 35.83299 | -14.38479 | 35065 ft | 465 kts | 219° |
| 2026-05-06 18:17 | 35.77772 | -14.42595 | 35065 ft | 465 kts | 219° |
| 2026-05-06 18:18 | 35.72247 | -14.46702 | 35072 ft | 464 kts | 219° |
| 2026-05-06 18:18 | 35.66717 | -14.50808 | 35070 ft | 466 kts | 219° |
| 2026-05-06 18:19 | 35.61160 | -14.54927 | 35068 ft | 467 kts | 219° |
| 2026-05-06 18:19 | 35.55610 | -14.59029 | 35071 ft | 467 kts | 219° |
| 2026-05-06 18:20 | 35.50046 | -14.63142 | 35073 ft | 467 kts | 219° |
| 2026-05-06 18:20 | 35.44470 | -14.67254 | 35067 ft | 468 kts | 218° |
| 2026-05-06 18:21 | 35.38890 | -14.71361 | 35074 ft | 468 kts | 218° |
| 2026-05-06 18:21 | 35.33291 | -14.75478 | 35071 ft | 469 kts | 218° |
| 2026-05-06 18:22 | 35.27680 | -14.79595 | 35074 ft | 472 kts | 218° |
| 2026-05-06 18:22 | 35.22052 | -14.83714 | 35072 ft | 471 kts | 218° |
| 2026-05-06 18:23 | 35.16430 | -14.87824 | 35075 ft | 472 kts | 218° |
| 2026-05-06 18:23 | 35.10779 | -14.91954 | 35078 ft | 474 kts | 218° |
| 2026-05-06 18:24 | 35.05120 | -14.96079 | 35078 ft | 473 kts | 218° |
| 2026-05-06 18:24 | 34.99472 | -15.00189 | 35071 ft | 474 kts | 218° |
| 2026-05-06 18:25 | 34.93808 | -15.04305 | 35069 ft | 475 kts | 218° |
| 2026-05-06 18:25 | 34.88118 | -15.08436 | 35070 ft | 476 kts | 218° |
| 2026-05-06 18:26 | 34.82425 | -15.12553 | 35070 ft | 475 kts | 218° |
| 2026-05-06 18:26 | 34.76750 | -15.16655 | 35078 ft | 476 kts | 218° |
| 2026-05-06 18:27 | 34.71063 | -15.20756 | 35075 ft | 474 kts | 218° |
| 2026-05-06 18:27 | 34.65390 | -15.24849 | 35074 ft | 475 kts | 218° |
| 2026-05-06 18:28 | 34.59701 | -15.28940 | 35078 ft | 476 kts | 218° |
| 2026-05-06 18:28 | 34.54024 | -15.33018 | 35077 ft | 474 kts | 218° |
| 2026-05-06 18:29 | 34.48355 | -15.37088 | 35077 ft | 475 kts | 218° |
| 2026-05-06 18:29 | 34.42672 | -15.41157 | 35081 ft | 475 kts | 218° |
| 2026-05-06 18:30 | 34.36980 | -15.45227 | 35078 ft | 476 kts | 218° |
| 2026-05-06 18:30 | 34.31282 | -15.49293 | 35075 ft | 474 kts | 218° |
| 2026-05-06 18:31 | 34.25615 | -15.53333 | 35012 ft | 470 kts | 217° |
| 2026-05-06 18:31 | 34.22805 | -15.55331 | 34695 ft | 467 kts | 218° |
| 2026-05-06 18:31 | 34.20008 | -15.57320 | 34108 ft | 468 kts | 218° |
| 2026-05-06 18:32 | 34.17210 | -15.59310 | 33451 ft | 467 kts | 218° |
| 2026-05-06 18:32 | 34.14413 | -15.61298 | 32744 ft | 467 kts | 218° |
| 2026-05-06 18:32 | 34.11616 | -15.63286 | 31974 ft | 470 kts | 218° |
| 2026-05-06 18:32 | 34.08795 | -15.65291 | 31138 ft | 473 kts | 217° |
| 2026-05-06 18:33 | 34.05954 | -15.67313 | 30261 ft | 478 kts | 217° |
| 2026-05-06 18:33 | 34.03073 | -15.69345 | 29369 ft | 483 kts | 217° |
| 2026-05-06 18:33 | 34.00178 | -15.71397 | 28552 ft | 486 kts | 217° |
| 2026-05-06 18:33 | 33.97263 | -15.73461 | 27794 ft | 487 kts | 216° |
| 2026-05-06 18:34 | 33.94359 | -15.75511 | 27284 ft | 481 kts | 216° |
| 2026-05-06 18:34 | 33.91489 | -15.77531 | 26842 ft | 475 kts | 216° |
| 2026-05-06 18:34 | 33.88645 | -15.79530 | 26311 ft | 470 kts | 216° |
| 2026-05-06 18:34 | 33.85835 | -15.81518 | 25741 ft | 467 kts | 216° |
| 2026-05-06 18:35 | 33.83053 | -15.83486 | 25189 ft | 463 kts | 216° |
| 2026-05-06 18:35 | 33.80293 | -15.85434 | 24657 ft | 458 kts | 216° |
| 2026-05-06 18:35 | 33.77557 | -15.87363 | 24038 ft | 454 kts | 215° |
| 2026-05-06 18:35 | 33.74846 | -15.89272 | 23507 ft | 449 kts | 215° |
| 2026-05-06 18:36 | 33.72175 | -15.91147 | 23241 ft | 442 kts | 215° |
| 2026-05-06 18:36 | 33.69545 | -15.92987 | 23058 ft | 434 kts | 215° |
| 2026-05-06 18:36 | 33.66952 | -15.94809 | 22786 ft | 428 kts | 216° |
| 2026-05-06 18:36 | 33.64454 | -15.96690 | 22327 ft | 422 kts | 217° |
| 2026-05-06 18:37 | 33.61990 | -15.98579 | 21840 ft | 419 kts | 217° |
| 2026-05-06 18:37 | 33.60364 | -15.99829 | 21515 ft | 416 kts | 217° |
| 2026-05-06 18:37 | 33.57130 | -16.02315 | 20872 ft | 411 kts | 217° |
| 2026-05-06 18:37 | 33.54733 | -16.04153 | 20383 ft | 408 kts | 217° |
| 2026-05-06 18:38 | 33.52353 | -16.05976 | 19883 ft | 405 kts | 217° |
| 2026-05-06 18:38 | 33.49986 | -16.07788 | 19382 ft | 402 kts | 217° |
| 2026-05-06 18:38 | 33.47636 | -16.09586 | 18882 ft | 399 kts | 217° |
| 2026-05-06 18:38 | 33.45307 | -16.11366 | 18388 ft | 396 kts | 217° |
| 2026-05-06 18:39 | 33.42996 | -16.13131 | 17899 ft | 393 kts | 217° |
| 2026-05-06 18:39 | 33.40703 | -16.14882 | 17413 ft | 390 kts | 217° |
| 2026-05-06 18:39 | 33.38430 | -16.16619 | 16927 ft | 386 kts | 217° |
| 2026-05-06 18:40 | 33.33940 | -16.20043 | 15952 ft | 380 kts | 217° |
| 2026-05-06 18:40 | 33.31725 | -16.21730 | 15472 ft | 377 kts | 217° |
| 2026-05-06 18:40 | 33.29520 | -16.23407 | 15003 ft | 374 kts | 217° |
| 2026-05-06 18:40 | 33.27335 | -16.25068 | 14532 ft | 370 kts | 217° |
| 2026-05-06 18:41 | 33.25191 | -16.26695 | 14252 ft | 358 kts | 217° |
| 2026-05-06 18:41 | 33.23122 | -16.28261 | 13900 ft | 346 kts | 217° |
| 2026-05-06 18:41 | 33.21133 | -16.29769 | 13625 ft | 330 kts | 217° |
| 2026-05-06 18:41 | 33.19226 | -16.31212 | 13261 ft | 321 kts | 217° |
| 2026-05-06 18:42 | 33.17359 | -16.32629 | 12742 ft | 317 kts | 217° |
| 2026-05-06 18:42 | 33.15510 | -16.34034 | 12205 ft | 314 kts | 217° |
| 2026-05-06 18:42 | 33.13680 | -16.35421 | 11644 ft | 309 kts | 217° |
| 2026-05-06 18:42 | 33.11880 | -16.36787 | 11032 ft | 307 kts | 216° |
| 2026-05-06 18:43 | 33.10091 | -16.38139 | 10492 ft | 302 kts | 216° |
| 2026-05-06 18:43 | 33.08333 | -16.39468 | 9935 ft | 298 kts | 216° |
| 2026-05-06 18:43 | 33.06597 | -16.40780 | 9387 ft | 294 kts | 216° |
| 2026-05-06 18:43 | 33.04883 | -16.42077 | 8818 ft | 290 kts | 216° |
| 2026-05-06 18:44 | 33.03193 | -16.43354 | 8261 ft | 287 kts | 216° |
| 2026-05-06 18:44 | 33.01520 | -16.44621 | 7699 ft | 284 kts | 215° |
| 2026-05-06 18:44 | 32.99866 | -16.45868 | 7149 ft | 280 kts | 215° |
| 2026-05-06 18:44 | 32.98225 | -16.47102 | 6615 ft | 277 kts | 214° |
| 2026-05-06 18:45 | 32.96607 | -16.48319 | 6075 ft | 274 kts | 214° |
| 2026-05-06 18:45 | 32.95001 | -16.49525 | 5546 ft | 271 kts | 214° |
| 2026-05-06 18:45 | 32.93429 | -16.50746 | 5019 ft | 268 kts | 217° |
| 2026-05-06 18:45 | 32.92435 | -16.51626 | 4668 ft | 266 kts | 220° |
| 2026-05-06 18:46 | 32.90592 | -16.53526 | 4078 ft | 261 kts | 224° |
| 2026-05-06 18:46 | 32.89240 | -16.54984 | 3850 ft | 261 kts | 224° |
| 2026-05-06 18:46 | 32.87910 | -16.56418 | 3664 ft | 253 kts | 224° |
| 2026-05-06 18:46 | 32.86620 | -16.57801 | 3456 ft | 246 kts | 224° |
| 2026-05-06 18:47 | 32.85363 | -16.59143 | 3252 ft | 239 kts | 224° |
| 2026-05-06 18:47 | 32.84135 | -16.60448 | 3055 ft | 235 kts | 224° |
| 2026-05-06 18:47 | 32.82912 | -16.61758 | 3018 ft | 238 kts | 224° |
| 2026-05-06 18:47 | 32.81581 | -16.62940 | 3022 ft | 240 kts | 212° |
| 2026-05-06 18:48 | 32.80076 | -16.63787 | 3022 ft | 239 kts | 201° |
| 2026-05-06 18:48 | 32.78500 | -16.64442 | 3019 ft | 238 kts | 199° |
| 2026-05-06 18:48 | 32.76943 | -16.65051 | 2909 ft | 230 kts | 198° |
| 2026-05-06 18:48 | 32.75460 | -16.65633 | 2809 ft | 216 kts | 198° |
| 2026-05-06 18:49 | 32.74054 | -16.66193 | 2523 ft | 212 kts | 198° |
| 2026-05-06 18:49 | 32.72657 | -16.66754 | 2133 ft | 211 kts | 198° |
| 2026-05-06 18:49 | 32.71271 | -16.67311 | 2008 ft | 210 kts | 198° |
| 2026-05-06 18:49 | 32.69875 | -16.67873 | 2008 ft | 212 kts | 199° |
| 2026-05-06 18:50 | 32.68475 | -16.68439 | 2004 ft | 212 kts | 199° |
| 2026-05-06 18:50 | 32.67076 | -16.69006 | 2004 ft | 212 kts | 199° |
| 2026-05-06 18:50 | 32.65680 | -16.69572 | 2001 ft | 212 kts | 199° |
| 2026-05-06 18:50 | 32.64283 | -16.70140 | 2007 ft | 212 kts | 199° |
| 2026-05-06 18:51 | 32.62961 | -16.70887 | 1997 ft | 206 kts | 214° |
| 2026-05-06 18:51 | 32.61955 | -16.71951 | 1999 ft | 181 kts | 231° |
| 2026-05-06 18:51 | 32.61290 | -16.73150 | 1992 ft | 170 kts | 246° |
| 2026-05-06 18:51 | 32.60900 | -16.74435 | 1741 ft | 163 kts | 259° |
| 2026-05-06 18:52 | 32.60774 | -16.75752 | 1315 ft | 162 kts | 274° |
| 2026-05-06 18:52 | 32.60907 | -16.77078 | 1212 ft | 162 kts | 286° |
| 2026-05-06 18:52 | 32.61297 | -16.78326 | 1206 ft | 160 kts | 303° |
| 2026-05-06 18:52 | 32.61982 | -16.79343 | 1208 ft | 157 kts | 321° |
| 2026-05-06 18:53 | 32.62892 | -16.80035 | 1203 ft | 155 kts | 338° |
| 2026-05-06 18:53 | 32.63924 | -16.80352 | 1183 ft | 151 kts | 355° |
| 2026-05-06 18:53 | 32.64964 | -16.80387 | 956 ft | 150 kts | 1° |
| 2026-05-06 18:53 | 32.65962 | -16.80375 | 891 ft | 143 kts | 2° |
| 2026-05-06 18:54 | 32.66924 | -16.80195 | 869 ft | 137 kts | 17° |
| 2026-05-06 18:54 | 32.67754 | -16.79706 | 648 ft | 134 kts | 35° |
| 2026-05-06 18:54 | 32.68474 | -16.78973 | 391 ft | 139 kts | 45° |
| 2026-05-06 18:54 | 32.69162 | -16.78178 | 185 ft | 137 kts | 43° |
| 2026-05-06 18:55 | 32.69794 | -16.77439 | 199 ft | 108 kts | 45° |
| 2026-05-06 18:55 | 32.70208 | -16.76952 | 202 ft | 58 kts | 44° |
| 2026-05-06 18:55 | 32.70363 | -16.76751 | 202 ft | 14 kts | 40° |
| 2026-05-06 18:55 | 32.70406 | -16.76785 | 202 ft | 8 kts | 251° |
| 2026-05-06 18:56 | 32.70359 | -16.76818 | 202 ft | 7 kts | 197° |
| 2026-05-06 18:56 | 32.70298 | -16.76854 | 203 ft | 15 kts | 217° |
| 2026-05-06 18:56 | 32.70207 | -16.76956 | 203 ft | 20 kts | 225° |
| 2026-05-06 18:56 | 32.70096 | -16.77087 | 203 ft | 24 kts | 225° |
| 2026-05-06 18:57 | 32.69974 | -16.77177 | 203 ft | 19 kts | 181° |
| 2026-05-06 18:57 | 32.69848 | -16.77181 | 203 ft | 16 kts | 197° |
| 2026-05-06 18:57 | 32.69759 | -16.77275 | 198 ft | 19 kts | 227° |
| 2026-05-06 18:57 | 32.69649 | -16.77411 | 189 ft | 23 kts | 226° |
| 2026-05-06 18:58 | 32.69553 | -16.77530 | 184 ft | 16 kts | 226° |
| 2026-05-06 18:58 | 32.69482 | -16.77617 | 184 ft | 13 kts | 226° |
| 2026-05-06 18:58 | 32.69443 | -16.77663 | 184 ft | 4 kts | 225° |
| 2026-05-06 18:58 | 32.69408 | -16.77707 | 184 ft | 8 kts | 226° |
| 2026-05-06 18:59 | 32.69373 | -16.77729 | 184 ft | 5 kts | 166° |
| 2026-05-06 18:59 | 32.69342 | -16.77701 | 184 ft | 4 kts | 137° |
| 2026-05-06 18:59 | 32.69336 | -16.77695 | 184 ft | 0 kts | 137° |